createdAt,value
2023-04-10T00:02:10.079Z,7.60
2023-04-10T00:04:37.287Z,8.13
2023-04-10T00:07:04.108Z,7.35
2023-04-10T00:09:30.907Z,8.07
2023-04-10T00:12:00.880Z,7.35
2023-04-10T00:14:27.612Z,8.35
2023-04-10T00:16:54.575Z,7.78
2023-04-10T00:19:21.752Z,9.27
2023-04-10T00:21:48.485Z,8.57
2023-04-10T00:24:15.698Z,11.57
2023-04-10T00:26:42.363Z,8.13
2023-04-10T00:29:09.141Z,8.88
2023-04-10T00:31:36.229Z,10.40
2023-04-10T00:34:02.967Z,8.77
2023-04-10T00:36:29.703Z,9.45
2023-04-10T00:38:56.435Z,10.60
2023-04-10T00:41:24.207Z,9.65
2023-04-10T00:43:55.677Z,10.05
2023-04-10T00:46:23.163Z,9.83
2023-04-10T00:48:52.714Z,7.95
2023-04-10T00:51:21.104Z,9.75
2023-04-10T00:53:51.066Z,6.75
2023-04-10T00:56:19.499Z,8.68
2023-04-10T00:58:46.225Z,10.02
2023-04-10T01:01:13.279Z,9.27
2023-04-10T01:03:42.450Z,8.45
2023-04-10T01:06:27.736Z,8.07
2023-04-10T01:09:03.405Z,9.27
2023-04-10T01:11:45.458Z,9.55
2023-04-10T01:14:20.528Z,9.98
2023-04-10T01:16:54.095Z,8.43
2023-04-10T01:19:29.941Z,9.27
2023-04-10T01:21:58.693Z,10.18
2023-04-10T01:24:50.106Z,9.00
2023-04-10T01:27:42.367Z,9.32
2023-04-10T01:30:12.294Z,11.00
2023-04-10T01:32:40.522Z,9.88
2023-04-10T01:35:09.085Z,9.70
2023-04-10T01:37:40.648Z,13.05
2023-04-10T01:40:11.373Z,9.75
2023-04-10T01:42:56.740Z,9.25
2023-04-10T01:45:28.878Z,8.07
2023-04-10T01:47:56.849Z,8.57
2023-04-10T01:50:24.569Z,9.40
2023-04-10T01:52:54.777Z,9.98
2023-04-10T01:55:22.113Z,13.02
2023-04-10T01:57:49.424Z,9.18
2023-04-10T02:00:17.303Z,9.75
2023-04-10T02:02:44.739Z,12.45
2023-04-10T02:05:11.670Z,12.10
2023-04-10T02:07:51.796Z,10.48
2023-04-10T02:10:24.841Z,12.57
2023-04-10T02:12:56.582Z,13.40
2023-04-10T02:15:26.804Z,10.77
2023-04-10T02:17:55.698Z,13.40
2023-04-10T02:20:23.990Z,13.23
2023-04-10T02:22:50.773Z,13.18
2023-04-10T02:25:17.544Z,12.57
2023-04-10T02:27:44.954Z,14.50
2023-04-10T02:30:12.050Z,12.55
2023-04-10T02:32:38.734Z,14.38
2023-04-10T02:35:05.704Z,13.40
2023-04-10T02:37:33.285Z,11.38
2023-04-10T02:40:01.153Z,12.00
2023-04-10T02:42:27.936Z,8.30
2023-04-10T02:44:54.662Z,9.25
2023-04-10T02:47:21.411Z,11.00
2023-04-10T02:49:48.376Z,10.68
2023-04-10T02:52:15.047Z,9.63
2023-04-10T02:54:41.853Z,11.10
2023-04-10T02:57:08.835Z,9.73
2023-04-10T02:59:35.851Z,9.00
2023-04-10T03:02:02.630Z,9.63
2023-04-10T03:04:33.347Z,10.18
2023-04-10T03:07:00.605Z,12.35
2023-04-10T03:09:27.247Z,8.80
2023-04-10T03:11:53.952Z,11.20
2023-04-10T03:14:20.928Z,11.48
2023-04-10T03:16:48.066Z,12.48
2023-04-10T03:19:14.824Z,12.27
2023-04-10T03:21:41.614Z,11.00
2023-04-10T03:24:08.318Z,11.25
2023-04-10T03:26:35.528Z,13.68
2023-04-10T03:29:02.286Z,11.43
2023-04-10T03:31:29.698Z,12.82
2023-04-10T03:33:57.619Z,15.38
2023-04-10T03:36:24.633Z,20.95
2023-04-10T03:38:52.921Z,16.55
2023-04-10T03:41:19.624Z,15.05
2023-04-10T03:43:46.349Z,15.82
2023-04-10T03:46:13.156Z,22.77
2023-04-10T03:48:40.329Z,24.95
2023-04-10T03:51:08.089Z,23.13
2023-04-10T03:53:37.795Z,17.52
2023-04-10T03:56:04.818Z,18.58
2023-04-10T03:58:32.117Z,18.95
2023-04-10T04:00:58.913Z,18.80
2023-04-10T04:03:26.406Z,17.95
2023-04-10T04:05:53.501Z,17.40
2023-04-10T04:08:20.697Z,19.08
2023-04-10T04:10:47.635Z,15.50
2023-04-10T04:13:14.328Z,16.48
2023-04-10T04:15:42.598Z,18.38
2023-04-10T04:18:09.838Z,18.45
2023-04-10T04:20:36.892Z,14.93
2023-04-10T04:23:03.873Z,17.45
2023-04-10T04:25:30.962Z,17.02
2023-04-10T04:27:58.197Z,18.55
2023-04-10T04:30:25.174Z,15.82
2023-04-10T04:32:52.502Z,19.88
2023-04-10T04:35:19.251Z,17.08
2023-04-10T04:37:46.079Z,19.60
2023-04-10T04:40:13.346Z,20.45
2023-04-10T04:42:40.165Z,20.98
2023-04-10T04:45:18.243Z,16.73
2023-04-10T04:47:45.671Z,50.17
2023-04-10T04:50:12.588Z,33.55
2023-04-10T04:52:39.530Z,19.35
2023-04-10T04:55:07.005Z,16.80
2023-04-10T04:57:33.877Z,13.05
2023-04-10T05:00:08.203Z,15.07
2023-04-10T05:02:36.089Z,15.68
2023-04-10T05:05:03.313Z,14.98
2023-04-10T05:07:31.466Z,19.35
2023-04-10T05:09:59.461Z,12.95
2023-04-10T05:12:33.832Z,13.85
2023-04-10T05:15:02.900Z,12.05
2023-04-10T05:17:29.851Z,12.65
2023-04-10T05:19:56.972Z,11.80
2023-04-10T05:22:24.233Z,11.45
2023-04-10T05:24:51.118Z,13.82
2023-04-10T05:27:19.534Z,10.60
2023-04-10T05:29:46.909Z,10.95
2023-04-10T05:32:14.792Z,12.50
2023-04-10T05:34:42.811Z,13.93
2023-04-10T05:37:13.038Z,11.27
2023-04-10T05:39:49.071Z,13.48
2023-04-10T05:42:16.840Z,12.45
2023-04-10T05:44:50.204Z,10.93
2023-04-10T05:47:19.251Z,12.60
2023-04-10T05:49:46.244Z,12.57
2023-04-10T05:52:13.129Z,14.10
2023-04-10T05:54:39.816Z,10.98
2023-04-10T05:57:06.720Z,12.68
2023-04-10T05:59:33.540Z,13.30
2023-04-10T06:02:00.391Z,14.20
2023-04-10T06:04:27.618Z,19.77
2023-04-10T06:06:55.503Z,15.48
2023-04-10T06:09:22.296Z,17.67
2023-04-10T06:11:49.901Z,15.38
2023-04-10T06:14:19.059Z,13.68
2023-04-10T06:16:46.038Z,16.90
2023-04-10T06:19:12.699Z,16.50
2023-04-10T06:21:39.594Z,21.40
2023-04-10T06:24:06.502Z,17.48
2023-04-10T06:26:33.279Z,15.30
2023-04-10T06:29:00.558Z,15.05
2023-04-10T06:31:27.425Z,14.68
2023-04-10T06:33:54.285Z,19.48
2023-04-10T06:36:20.881Z,13.73
2023-04-10T06:38:47.466Z,15.15
2023-04-10T06:41:14.107Z,17.92
2023-04-10T06:43:40.763Z,13.43
2023-04-10T06:46:08.000Z,21.10
2023-04-10T06:48:34.835Z,13.82
2023-04-10T06:51:01.641Z,14.30
2023-04-10T06:53:28.625Z,14.90
2023-04-10T06:55:55.337Z,14.77
2023-04-10T06:58:22.120Z,14.07
2023-04-10T07:00:48.852Z,12.88
2023-04-10T07:03:15.819Z,19.25
2023-04-10T07:05:42.560Z,12.82
2023-04-10T07:08:09.263Z,13.88
2023-04-10T07:10:36.335Z,11.02
2023-04-10T07:13:03.069Z,15.88
2023-04-10T07:15:29.733Z,10.60
2023-04-10T07:17:56.543Z,16.13
2023-04-10T07:20:23.329Z,10.43
2023-04-10T07:22:50.115Z,15.88
2023-04-10T07:25:18.443Z,14.07
2023-04-10T07:27:45.258Z,18.15
2023-04-10T07:30:13.733Z,17.45
2023-04-10T07:32:42.365Z,12.68
2023-04-10T07:35:09.876Z,12.40
2023-04-10T07:37:36.673Z,14.43
2023-04-10T07:40:03.718Z,16.25
2023-04-10T07:42:30.611Z,13.82
2023-04-10T07:44:57.517Z,21.75
2023-04-10T07:47:24.599Z,16.40
2023-04-10T07:49:51.422Z,17.33
2023-04-10T07:52:18.209Z,20.13
2023-04-10T07:54:44.883Z,20.25
2023-04-10T07:57:11.540Z,15.13
2023-04-10T07:59:38.175Z,17.92
2023-04-10T08:02:04.934Z,17.40
2023-04-10T08:04:32.095Z,11.82
2023-04-10T08:06:58.994Z,11.75
2023-04-10T08:09:25.724Z,10.77
2023-04-10T08:11:52.328Z,11.18
2023-04-10T08:14:19.007Z,13.57
2023-04-10T08:16:45.661Z,10.35
2023-04-10T08:19:12.654Z,14.50
2023-04-10T08:21:39.402Z,9.95
2023-04-10T08:24:06.151Z,12.88
2023-04-10T08:26:32.799Z,9.45
2023-04-10T08:29:00.883Z,8.68
2023-04-10T08:31:29.489Z,10.25
2023-04-10T08:33:57.082Z,10.75
2023-04-10T08:36:24.564Z,10.25
2023-04-10T08:38:51.217Z,15.48
2023-04-10T08:41:19.512Z,7.35
2023-04-10T08:43:46.538Z,8.93
2023-04-10T08:46:16.833Z,8.60
2023-04-10T08:48:53.044Z,10.02
2023-04-10T08:51:26.382Z,7.78
2023-04-10T08:53:57.068Z,8.10
2023-04-10T08:56:24.760Z,7.55
2023-04-10T08:58:52.171Z,9.05
2023-04-10T09:01:21.367Z,8.00
2023-04-10T09:03:48.882Z,9.00
2023-04-10T09:06:15.849Z,8.63
2023-04-10T09:08:42.499Z,10.05
2023-04-10T09:11:09.191Z,6.15
2023-04-10T09:13:38.368Z,8.43
2023-04-10T09:16:05.797Z,8.23
2023-04-10T09:18:43.780Z,8.63
2023-04-10T09:21:11.964Z,6.25
2023-04-10T09:23:39.068Z,10.52
2023-04-10T09:26:33.578Z,9.35
2023-04-10T09:29:07.617Z,7.80
2023-04-10T09:31:36.573Z,11.30
2023-04-10T09:34:22.366Z,8.00
2023-04-10T09:36:55.967Z,14.35
2023-04-10T09:39:33.101Z,8.20
2023-04-10T09:41:59.834Z,9.43
2023-04-10T09:44:33.572Z,6.93
2023-04-10T09:47:18.949Z,12.00
2023-04-10T09:49:55.774Z,8.20
2023-04-10T09:52:26.421Z,12.25
2023-04-10T09:54:54.230Z,8.70
2023-04-10T09:57:22.733Z,7.15
2023-04-10T09:59:52.331Z,11.05
2023-04-10T10:02:20.413Z,12.30
2023-04-10T10:04:48.400Z,15.20
2023-04-10T10:07:19.908Z,9.50
2023-04-10T10:09:48.817Z,8.93
2023-04-10T10:12:18.044Z,8.20
2023-04-10T10:15:08.631Z,8.48
2023-04-10T10:17:42.443Z,8.68
2023-04-10T10:20:11.380Z,9.10
2023-04-10T10:22:38.481Z,10.57
2023-04-10T10:25:07.368Z,8.55
2023-04-10T10:27:38.804Z,9.30
2023-04-10T10:30:20.302Z,9.23
2023-04-10T10:32:54.971Z,10.32
2023-04-10T10:35:23.008Z,7.30
2023-04-10T10:37:50.735Z,11.18
2023-04-10T10:40:45.840Z,7.93
2023-04-10T10:43:18.404Z,6.60
2023-04-10T10:45:59.081Z,6.57
2023-04-10T10:48:25.794Z,9.32
2023-04-10T10:51:01.006Z,10.27
2023-04-10T10:53:43.058Z,5.65
2023-04-10T10:56:18.654Z,8.55
2023-04-10T10:58:52.849Z,8.35
2023-04-10T11:01:21.825Z,7.00
2023-04-10T11:03:49.194Z,7.20
2023-04-10T11:06:19.586Z,6.72
2023-04-10T11:08:53.478Z,9.60
2023-04-10T11:11:25.265Z,10.70
2023-04-10T11:13:57.349Z,5.83
2023-04-10T11:16:43.728Z,7.63
2023-04-10T11:19:16.647Z,7.18
2023-04-10T11:22:01.503Z,8.50
2023-04-10T11:24:29.300Z,10.38
2023-04-10T11:26:56.544Z,6.35
2023-04-10T11:29:29.142Z,7.07
2023-04-10T11:32:00.752Z,6.05
2023-04-10T11:34:28.582Z,8.18
2023-04-10T11:36:55.364Z,13.07
2023-04-10T11:39:22.334Z,5.80
2023-04-10T11:41:51.471Z,11.48
2023-04-10T11:44:36.893Z,6.82
2023-04-10T11:47:03.614Z,6.50
2023-04-10T11:49:32.869Z,7.07
2023-04-10T11:51:59.584Z,9.35
2023-04-10T11:54:27.744Z,6.68
2023-04-10T11:57:09.576Z,6.60
2023-04-10T11:59:36.302Z,9.88
2023-04-10T12:02:15.161Z,8.10
2023-04-10T12:04:44.102Z,6.43
2023-04-10T12:07:11.502Z,9.73
2023-04-10T12:09:38.377Z,9.10
2023-04-10T12:12:07.148Z,7.65
2023-04-10T12:14:35.394Z,9.25
2023-04-10T12:17:03.816Z,7.60
2023-04-10T12:19:31.179Z,9.88
2023-04-10T12:21:59.541Z,10.93
2023-04-10T12:24:43.758Z,5.18
2023-04-10T12:27:20.066Z,8.68
2023-04-10T12:29:49.091Z,7.78
2023-04-10T12:32:16.262Z,7.32
2023-04-10T12:34:49.500Z,10.93
2023-04-10T12:37:16.164Z,9.88
2023-04-10T12:39:42.896Z,12.07
2023-04-10T12:42:21.012Z,10.60
2023-04-10T12:45:01.080Z,6.03
2023-04-10T12:47:29.623Z,7.85
2023-04-10T12:50:14.453Z,9.57
2023-04-10T12:52:44.496Z,13.30
2023-04-10T12:55:21.475Z,8.90
2023-04-10T12:57:49.195Z,10.77
2023-04-10T13:00:18.616Z,9.23
2023-04-10T13:02:46.655Z,9.88
2023-04-10T13:05:13.568Z,8.52
2023-04-10T13:07:41.234Z,10.50
2023-04-10T13:10:14.768Z,13.43
2023-04-10T13:12:42.093Z,13.30
2023-04-10T13:15:09.331Z,11.25
2023-04-10T13:17:36.209Z,10.35
2023-04-10T13:20:03.792Z,11.07
2023-04-10T13:22:30.417Z,12.13
2023-04-10T13:24:57.172Z,10.35
2023-04-10T13:27:24.052Z,10.70
2023-04-10T13:29:50.799Z,12.18
2023-04-10T13:32:17.482Z,12.18
2023-04-10T13:34:44.175Z,13.90
2023-04-10T13:37:17.179Z,14.65
2023-04-10T13:39:43.768Z,11.25
2023-04-10T13:42:10.531Z,14.32
2023-04-10T13:44:37.269Z,13.80
2023-04-10T13:47:04.190Z,8.45
2023-04-10T13:49:31.038Z,9.50
2023-04-10T13:51:58.185Z,7.70
2023-04-10T13:54:24.924Z,6.38
2023-04-10T13:56:51.611Z,7.78
2023-04-10T13:59:18.251Z,7.45
2023-04-10T14:01:45.154Z,7.30
2023-04-10T14:04:11.803Z,18.25
2023-04-10T14:06:38.750Z,8.50
2023-04-10T14:09:05.430Z,5.22
2023-04-10T14:11:32.042Z,4.88
2023-04-10T14:13:58.755Z,4.95
2023-04-10T14:16:25.498Z,3.22
2023-04-10T14:18:52.398Z,5.78
2023-04-10T14:21:20.676Z,4.13
2023-04-10T14:23:47.904Z,4.18
2023-04-10T14:26:17.545Z,4.82
2023-04-10T14:28:44.197Z,3.85
2023-04-10T14:31:12.262Z,4.40
2023-04-10T14:33:39.011Z,4.63
2023-04-10T14:36:06.596Z,4.30
2023-04-10T14:38:33.452Z,5.30
2023-04-10T14:41:00.577Z,8.48
2023-04-10T14:43:27.326Z,7.88
2023-04-10T14:45:53.918Z,10.18
2023-04-10T14:48:21.281Z,9.95
2023-04-10T14:50:49.486Z,9.68
2023-04-10T14:53:16.189Z,8.52
2023-04-10T14:55:42.901Z,21.30
2023-04-10T14:58:11.151Z,8.95
2023-04-10T15:00:37.897Z,7.88
2023-04-10T15:03:06.495Z,11.15
2023-04-10T15:05:33.463Z,7.20
2023-04-10T15:08:00.076Z,8.50
2023-04-10T15:10:29.498Z,10.45
2023-04-10T15:12:56.145Z,10.00
2023-04-10T15:15:22.778Z,8.65
2023-04-10T15:17:49.608Z,12.65
2023-04-10T15:20:16.364Z,9.38
2023-04-10T15:22:43.479Z,13.38
2023-04-10T15:25:12.210Z,11.25
2023-04-10T15:27:41.956Z,7.93
2023-04-10T15:30:08.898Z,11.15
2023-04-10T15:32:38.131Z,9.23
2023-04-10T15:35:05.602Z,8.45
2023-04-10T15:37:34.657Z,9.00
2023-04-10T15:40:01.524Z,7.90
2023-04-10T15:42:29.099Z,10.13
2023-04-10T15:44:56.630Z,9.88
2023-04-10T15:47:23.384Z,11.55
2023-04-10T15:49:50.190Z,14.25
2023-04-10T15:52:35.230Z,11.75
2023-04-10T15:55:19.918Z,15.32
2023-04-10T15:57:47.581Z,15.68
2023-04-10T16:00:20.709Z,11.63
2023-04-10T16:02:49.978Z,13.25
2023-04-10T16:05:16.857Z,15.85
2023-04-10T16:07:43.992Z,10.90
2023-04-10T16:10:11.360Z,10.27
2023-04-10T16:12:38.576Z,11.20
2023-04-10T16:15:08.123Z,11.02
2023-04-10T16:17:34.922Z,11.45
2023-04-10T16:20:05.680Z,11.25
2023-04-10T16:22:32.345Z,10.18
2023-04-10T16:25:00.025Z,13.57
2023-04-10T16:27:26.746Z,16.00
2023-04-10T16:29:55.693Z,12.80
2023-04-10T16:32:22.475Z,9.85
2023-04-10T16:34:49.239Z,11.02
2023-04-10T16:37:16.013Z,8.32
2023-04-10T16:39:42.784Z,9.20
2023-04-10T16:42:09.613Z,9.65
2023-04-10T16:44:36.320Z,11.00
2023-04-10T16:47:03.728Z,9.82
2023-04-10T16:49:30.575Z,8.82
2023-04-10T16:51:57.403Z,8.80
2023-04-10T16:54:24.574Z,10.77
2023-04-10T16:56:52.110Z,11.50
2023-04-10T16:59:18.779Z,8.55
2023-04-10T17:01:45.777Z,10.52
2023-04-10T17:04:13.359Z,8.35
2023-04-10T17:06:40.219Z,6.80
2023-04-10T17:09:06.876Z,7.45
2023-04-10T17:11:33.480Z,8.25
2023-04-10T17:14:00.061Z,8.38
2023-04-10T17:16:26.658Z,16.10
2023-04-10T17:18:53.541Z,9.05
2023-04-10T17:21:20.861Z,10.40
2023-04-10T17:23:47.480Z,8.77
2023-04-10T17:26:15.883Z,11.93
2023-04-10T17:28:46.373Z,12.82
2023-04-10T17:31:14.017Z,9.60
2023-04-10T17:33:43.627Z,9.25
2023-04-10T17:36:12.259Z,10.20
2023-04-10T17:38:40.193Z,8.48
2023-04-10T17:41:07.446Z,7.95
2023-04-10T17:43:34.760Z,9.45
2023-04-10T17:46:02.177Z,8.80
2023-04-10T17:48:29.540Z,9.38
2023-04-10T17:50:56.251Z,10.00
2023-04-10T17:53:23.010Z,10.02
2023-04-10T17:55:49.821Z,8.80
2023-04-10T17:58:16.458Z,10.35
2023-04-10T18:00:43.288Z,11.50
2023-04-10T18:03:10.516Z,11.20
2023-04-10T18:05:38.720Z,12.15
2023-04-10T18:08:06.672Z,12.15
2023-04-10T18:10:33.421Z,13.02
2023-04-10T18:13:00.212Z,14.98
2023-04-10T18:15:27.550Z,13.95
2023-04-10T18:17:55.007Z,16.60
2023-04-10T18:20:22.464Z,15.38
2023-04-10T18:22:49.240Z,16.55
2023-04-10T18:25:17.013Z,14.45
2023-04-10T18:27:51.577Z,11.85
2023-04-10T18:30:31.047Z,14.23
2023-04-10T18:32:57.801Z,14.18
2023-04-10T18:35:24.515Z,17.02
2023-04-10T18:37:51.163Z,14.60
2023-04-10T18:40:17.827Z,13.02
2023-04-10T18:42:44.671Z,15.48
2023-04-10T18:45:13.064Z,13.43
2023-04-10T18:47:39.863Z,13.50
2023-04-10T18:50:09.770Z,14.45
2023-04-10T18:52:36.631Z,15.82
2023-04-10T18:55:04.148Z,20.17
2023-04-10T18:57:31.013Z,20.50
2023-04-10T18:59:57.938Z,22.00
2023-04-10T19:02:24.972Z,15.90
2023-04-10T19:04:53.496Z,14.52
2023-04-10T19:07:20.340Z,15.60
2023-04-10T19:09:47.875Z,16.63
2023-04-10T19:12:14.886Z,14.27
2023-04-10T19:14:41.624Z,12.75
2023-04-10T19:17:08.544Z,13.00
2023-04-10T19:19:35.485Z,12.07
2023-04-10T19:22:02.383Z,17.90
2023-04-10T19:24:29.171Z,12.52
2023-04-10T19:26:56.530Z,12.93
2023-04-10T19:29:23.253Z,14.43
2023-04-10T19:31:51.414Z,20.63
2023-04-10T19:34:18.451Z,20.35
2023-04-10T19:36:45.123Z,18.67
2023-04-10T19:39:11.875Z,25.55
2023-04-10T19:41:42.159Z,23.42
2023-04-10T19:44:09.094Z,29.52
2023-04-10T19:46:35.836Z,23.35
2023-04-10T19:49:02.559Z,23.00
2023-04-10T19:51:29.320Z,22.45
2023-04-10T19:53:58.089Z,23.40
2023-04-10T19:56:26.882Z,19.92
2023-04-10T19:58:53.930Z,23.02
2023-04-10T20:01:21.081Z,21.23
2023-04-10T20:03:47.934Z,21.77
2023-04-10T20:06:16.267Z,17.60
2023-04-10T20:08:43.042Z,21.20
2023-04-10T20:11:09.733Z,22.95
2023-04-10T20:13:36.476Z,18.20
2023-04-10T20:16:03.201Z,18.88
2023-04-10T20:18:31.809Z,18.65
2023-04-10T20:20:58.369Z,16.92
2023-04-10T20:23:25.064Z,17.27
2023-04-10T20:25:51.631Z,16.45
2023-04-10T20:28:18.312Z,20.30
2023-04-10T20:30:45.065Z,16.45
2023-04-10T20:33:12.049Z,19.52
2023-04-10T20:35:38.867Z,16.48
2023-04-10T20:38:05.633Z,15.68
2023-04-10T20:40:32.446Z,15.48
2023-04-10T20:42:59.263Z,16.83
2023-04-10T20:45:26.117Z,15.98
2023-04-10T20:47:52.881Z,13.13
2023-04-10T20:50:19.673Z,17.67
2023-04-10T20:52:46.364Z,19.63
2023-04-10T20:55:12.980Z,19.50
2023-04-10T20:57:39.608Z,20.05
2023-04-10T21:00:07.359Z,17.15
2023-04-10T21:02:34.282Z,19.05
2023-04-10T21:05:01.048Z,16.60
2023-04-10T21:07:27.883Z,19.67
2023-04-10T21:09:54.610Z,21.60
2023-04-10T21:12:22.008Z,20.50
2023-04-10T21:14:48.846Z,18.40
2023-04-10T21:17:18.438Z,15.93
2023-04-10T21:19:45.352Z,21.00
2023-04-10T21:22:12.367Z,22.63
2023-04-10T21:24:39.124Z,23.45
2023-04-10T21:27:06.421Z,21.48
2023-04-10T21:29:33.186Z,18.95
2023-04-10T21:31:59.919Z,21.20
2023-04-10T21:34:26.614Z,24.42
2023-04-10T21:36:54.115Z,23.20
2023-04-10T21:39:20.795Z,21.40
2023-04-10T21:41:47.473Z,24.63
2023-04-10T21:44:14.077Z,24.80
2023-04-10T21:46:40.733Z,23.85
2023-04-10T21:49:07.503Z,22.40
2023-04-10T21:51:34.191Z,24.27
2023-04-10T21:54:00.834Z,21.08
2023-04-10T21:56:27.930Z,20.45
2023-04-10T21:58:55.105Z,19.90
2023-04-10T22:01:22.492Z,19.73
2023-04-10T22:03:49.335Z,19.48
2023-04-10T22:06:16.141Z,20.10
2023-04-10T22:08:43.455Z,17.90
2023-04-10T22:11:10.047Z,19.55
2023-04-10T22:13:36.933Z,17.48
2023-04-10T22:16:03.833Z,18.77
2023-04-10T22:18:30.592Z,19.95
2023-04-10T22:20:57.389Z,16.85
2023-04-10T22:23:24.283Z,14.40
2023-04-10T22:25:50.951Z,14.32
2023-04-10T22:28:17.589Z,13.65
2023-04-10T22:30:44.316Z,13.93
2023-04-10T22:33:12.051Z,14.90
2023-04-10T22:35:38.743Z,13.50
2023-04-10T22:38:05.561Z,11.98
2023-04-10T22:40:32.167Z,12.73
2023-04-10T22:42:58.841Z,12.57
2023-04-10T22:45:25.428Z,12.77
2023-04-10T22:47:52.053Z,14.32
2023-04-10T22:50:18.711Z,12.60
2023-04-10T22:52:45.387Z,13.00
2023-04-10T22:55:12.885Z,13.43
2023-04-10T22:57:39.583Z,13.95
2023-04-10T23:00:07.172Z,13.23
2023-04-10T23:02:34.030Z,13.50
2023-04-10T23:05:00.877Z,11.77
2023-04-10T23:07:27.975Z,13.20
2023-04-10T23:09:54.771Z,12.15
2023-04-10T23:12:21.404Z,12.40
2023-04-10T23:14:48.014Z,11.90
2023-04-10T23:17:14.712Z,12.23
2023-04-10T23:19:41.416Z,13.32
2023-04-10T23:22:08.136Z,14.30
2023-04-10T23:24:34.856Z,14.15
2023-04-10T23:27:01.737Z,15.07
2023-04-10T23:29:28.485Z,13.25
2023-04-10T23:31:55.238Z,13.52
2023-04-10T23:34:21.968Z,11.57
2023-04-10T23:36:48.745Z,14.55
2023-04-10T23:39:15.569Z,10.98
2023-04-10T23:41:42.699Z,10.30
2023-04-10T23:44:09.468Z,12.68
2023-04-10T23:46:36.171Z,11.60
2023-04-10T23:49:02.924Z,12.40
2023-04-10T23:51:31.903Z,12.15
2023-04-10T23:53:58.880Z,12.35
2023-04-10T23:56:29.440Z,12.00
2023-04-10T23:58:56.475Z,10.65
